createdAt,value
2019-05-26T00:00:26.903Z,20.47
2019-05-26T00:02:56.132Z,18.20
2019-05-26T00:05:27.067Z,20.97
2019-05-26T00:07:56.542Z,22.37
2019-05-26T00:10:26.398Z,23.17
2019-05-26T00:12:56.433Z,27.33
2019-05-26T00:15:26.467Z,25.17
2019-05-26T00:17:55.491Z,21.00
2019-05-26T00:20:25.001Z,22.53
2019-05-26T00:22:53.938Z,27.00
2019-05-26T00:25:23.255Z,24.63
2019-05-26T00:27:52.517Z,26.40
2019-05-26T00:30:21.601Z,23.07
2019-05-26T00:32:50.623Z,24.10
2019-05-26T00:35:19.728Z,24.67
2019-05-26T00:37:50.364Z,29.07
2019-05-26T00:40:20.269Z,27.97
2019-05-26T00:42:49.546Z,27.30
2019-05-26T00:45:19.613Z,24.23
2019-05-26T00:47:48.912Z,24.43
2019-05-26T00:50:18.597Z,19.73
2019-05-26T00:52:47.618Z,22.83
2019-05-26T00:55:17.119Z,21.10
2019-05-26T00:57:46.395Z,19.80
2019-05-26T01:00:17.256Z,17.33
2019-05-26T01:02:46.288Z,21.23
2019-05-26T01:05:15.826Z,23.50
2019-05-26T01:07:44.839Z,17.73
2019-05-26T01:10:14.158Z,16.37
2019-05-26T01:12:43.175Z,19.40
2019-05-26T01:15:13.102Z,16.17
2019-05-26T01:17:42.574Z,18.53
2019-05-26T01:20:11.914Z,18.13
2019-05-26T01:22:41.399Z,14.93
2019-05-26T01:25:10.594Z,17.33
2019-05-26T01:27:39.718Z,14.93
2019-05-26T01:30:09.976Z,17.03
2019-05-26T01:32:39.114Z,14.30
2019-05-26T01:35:08.380Z,12.27
2019-05-26T01:37:38.241Z,16.17
2019-05-26T01:40:07.880Z,13.87
2019-05-26T01:42:37.611Z,13.77
2019-05-26T01:45:06.844Z,11.93
2019-05-26T01:47:36.699Z,13.83
2019-05-26T01:50:05.895Z,12.03
2019-05-26T01:52:34.846Z,12.40
2019-05-26T01:55:04.423Z,13.63
2019-05-26T01:57:33.842Z,11.87
2019-05-26T02:00:03.328Z,8.40
2019-05-26T02:02:32.397Z,10.13
2019-05-26T02:05:01.450Z,8.73
2019-05-26T02:07:30.848Z,10.70
2019-05-26T02:10:00.665Z,10.40
2019-05-26T02:12:30.022Z,8.77
2019-05-26T02:14:59.366Z,12.00
2019-05-26T02:17:28.649Z,11.37
2019-05-26T02:19:58.260Z,12.73
2019-05-26T02:22:27.262Z,13.07
2019-05-26T02:24:56.305Z,9.43
2019-05-26T02:27:25.646Z,8.27
2019-05-26T02:29:54.654Z,10.20
2019-05-26T02:32:23.661Z,10.07
2019-05-26T02:34:52.834Z,9.10
2019-05-26T02:37:22.485Z,9.50
2019-05-26T02:39:51.743Z,8.17
2019-05-26T02:42:21.040Z,6.87
2019-05-26T02:44:50.410Z,6.77
2019-05-26T02:47:19.353Z,6.63
2019-05-26T02:49:48.401Z,7.80
2019-05-26T02:52:17.700Z,7.60
2019-05-26T02:54:47.049Z,6.13
2019-05-26T02:57:16.081Z,10.97
2019-05-26T02:59:45.216Z,8.17
2019-05-26T03:02:14.907Z,7.40
2019-05-26T03:04:44.576Z,7.53
2019-05-26T03:07:14.096Z,7.43
2019-05-26T03:09:44.361Z,6.93
2019-05-26T03:12:14.386Z,8.73
2019-05-26T03:14:43.840Z,6.40
2019-05-26T03:17:12.759Z,6.80
2019-05-26T03:19:41.985Z,6.00
2019-05-26T03:22:12.292Z,5.67
2019-05-26T03:24:43.356Z,6.43
2019-05-26T03:27:12.699Z,7.27
2019-05-26T03:29:41.723Z,9.83
2019-05-26T03:32:10.960Z,5.00
2019-05-26T03:34:40.243Z,8.90
2019-05-26T03:37:09.462Z,8.37
2019-05-26T03:39:45.470Z,11.50
2019-05-26T03:42:09.481Z,9.90
2019-05-26T03:44:38.531Z,7.73
2019-05-26T03:47:08.257Z,6.37
2019-05-26T03:49:37.524Z,8.20
2019-05-26T03:52:06.526Z,8.17
2019-05-26T03:54:36.123Z,5.60
2019-05-26T03:57:05.400Z,8.93
2019-05-26T03:59:34.360Z,8.43
2019-05-26T04:02:03.352Z,3.97
2019-05-26T04:04:32.554Z,5.33
2019-05-26T04:07:01.557Z,8.70
2019-05-26T04:09:30.849Z,5.87
2019-05-26T04:12:00.208Z,5.07
2019-05-26T04:14:29.166Z,7.00
2019-05-26T04:16:59.677Z,8.50
2019-05-26T04:19:28.715Z,1.80
2019-05-26T04:21:57.636Z,4.77
2019-05-26T04:24:26.641Z,5.83
2019-05-26T04:26:55.794Z,5.57
2019-05-26T04:29:25.293Z,5.93
2019-05-26T04:31:54.893Z,7.00
2019-05-26T04:34:24.314Z,5.50
2019-05-26T04:36:53.255Z,7.33
2019-05-26T04:39:22.340Z,4.10
2019-05-26T04:41:52.031Z,4.33
2019-05-26T04:44:21.368Z,4.90
2019-05-26T04:46:50.460Z,4.70
2019-05-26T04:49:19.487Z,5.93
2019-05-26T04:51:48.635Z,4.27
2019-05-26T04:54:17.626Z,7.00
2019-05-26T04:56:46.975Z,5.60
2019-05-26T04:59:16.250Z,5.47
2019-05-26T05:01:45.274Z,4.30
2019-05-26T05:04:14.654Z,4.73
2019-05-26T05:06:44.366Z,7.20
2019-05-26T05:09:13.687Z,4.07
2019-05-26T05:11:42.707Z,4.10
2019-05-26T05:14:11.627Z,5.50
2019-05-26T05:16:40.642Z,4.80
2019-05-26T05:19:10.031Z,6.90
2019-05-26T05:21:39.030Z,5.63
2019-05-26T05:24:07.979Z,6.00
2019-05-26T05:26:36.942Z,5.63
2019-05-26T05:29:06.189Z,4.63
2019-05-26T05:31:35.542Z,3.87
2019-05-26T05:34:05.723Z,5.47
2019-05-26T05:36:35.130Z,4.73
2019-05-26T05:39:05.999Z,6.37
2019-05-26T05:41:34.974Z,4.27
2019-05-26T05:44:04.344Z,5.83
2019-05-26T05:46:33.298Z,3.87
2019-05-26T05:49:02.416Z,4.73
2019-05-26T05:51:31.766Z,4.93
2019-05-26T05:54:01.221Z,4.63
2019-05-26T05:56:31.174Z,3.73
2019-05-26T05:59:00.173Z,5.63
2019-05-26T06:01:29.208Z,5.63
2019-05-26T06:03:58.188Z,4.47
2019-05-26T06:06:27.177Z,5.10
2019-05-26T06:08:56.479Z,4.10
2019-05-26T06:11:25.737Z,6.67
2019-05-26T06:13:55.437Z,6.43
2019-05-26T06:16:24.765Z,7.07
2019-05-26T06:18:53.810Z,4.50
2019-05-26T06:21:23.167Z,4.33
2019-05-26T06:23:52.314Z,7.93
2019-05-26T06:26:21.353Z,4.87
2019-05-26T06:28:52.461Z,6.07
2019-05-26T06:31:21.360Z,6.50
2019-05-26T06:33:50.889Z,5.90
2019-05-26T06:36:20.286Z,7.60
2019-05-26T06:38:49.257Z,5.90
2019-05-26T06:41:32.337Z,6.70
2019-05-26T06:43:49.292Z,7.33
2019-05-26T06:46:18.312Z,8.20
2019-05-26T06:48:47.296Z,7.23
2019-05-26T06:51:17.159Z,5.63
2019-05-26T06:53:46.183Z,6.90
2019-05-26T06:56:15.243Z,7.80
2019-05-26T06:58:44.187Z,6.43
2019-05-26T07:01:13.142Z,6.93
2019-05-26T07:03:42.085Z,7.00
2019-05-26T07:06:11.695Z,8.70
2019-05-26T07:08:40.602Z,6.03
2019-05-26T07:11:09.924Z,11.40
2019-05-26T07:13:39.159Z,11.53
2019-05-26T07:16:08.471Z,6.43
2019-05-26T07:18:37.797Z,6.60
2019-05-26T07:21:06.957Z,6.60
2019-05-26T07:23:35.913Z,5.83
2019-05-26T07:26:05.699Z,6.67
2019-05-26T07:28:34.861Z,7.63
2019-05-26T07:31:04.192Z,7.07
2019-05-26T07:33:33.613Z,6.80
2019-05-26T07:36:02.571Z,8.40
2019-05-26T07:38:32.228Z,8.63
2019-05-26T07:41:01.552Z,5.67
2019-05-26T07:43:30.473Z,8.17
2019-05-26T07:46:00.421Z,6.47
2019-05-26T07:48:29.942Z,8.73
2019-05-26T07:50:58.887Z,8.57
2019-05-26T07:53:27.860Z,6.47
2019-05-26T07:55:57.176Z,6.80
2019-05-26T07:58:26.780Z,6.70
2019-05-26T08:00:56.302Z,5.83
2019-05-26T08:03:25.650Z,5.00
2019-05-26T08:05:54.971Z,6.40
2019-05-26T08:08:24.580Z,6.70
2019-05-26T08:10:54.021Z,7.27
2019-05-26T08:13:23.292Z,5.20
2019-05-26T08:15:54.007Z,5.00
2019-05-26T08:18:22.955Z,7.93
2019-05-26T08:20:52.170Z,5.50
2019-05-26T08:23:21.419Z,6.73
2019-05-26T08:25:50.753Z,5.77
2019-05-26T08:28:20.040Z,10.43
2019-05-26T08:30:49.550Z,6.20
2019-05-26T08:33:18.533Z,5.20
2019-05-26T08:35:49.874Z,7.10
2019-05-26T08:38:19.051Z,5.00
2019-05-26T08:40:48.089Z,5.60
2019-05-26T08:43:17.440Z,5.40
2019-05-26T08:45:46.867Z,8.57
2019-05-26T08:48:16.791Z,5.80
2019-05-26T08:50:46.686Z,4.80
2019-05-26T08:53:16.978Z,7.43
2019-05-26T08:55:46.701Z,5.53
2019-05-26T09:18:41.388Z,7.20
2019-05-26T09:21:10.359Z,5.00
2019-05-26T09:23:39.643Z,5.03
2019-05-26T09:26:08.715Z,6.60
2019-05-26T09:28:37.771Z,6.80
2019-05-26T09:31:06.877Z,5.13
2019-05-26T09:33:36.571Z,5.37
2019-05-26T09:36:05.742Z,5.00
2019-05-26T09:38:35.295Z,4.40
2019-05-26T09:41:04.916Z,7.43
2019-05-26T09:43:34.211Z,4.20
2019-05-26T09:46:03.457Z,5.90
2019-05-26T09:48:33.207Z,5.90
2019-05-26T09:51:02.671Z,6.63
2019-05-26T09:53:32.216Z,7.50
2019-05-26T09:56:01.519Z,6.00
2019-05-26T09:58:30.643Z,5.30
2019-05-26T10:00:59.812Z,4.03
2019-05-26T10:03:29.350Z,7.00
2019-05-26T10:05:58.824Z,7.10
2019-05-26T10:08:28.230Z,4.23
2019-05-26T10:10:57.179Z,4.50
2019-05-26T10:13:31.635Z,5.47
2019-05-26T10:15:57.061Z,4.73
2019-05-26T10:18:26.067Z,4.60
2019-05-26T10:20:55.111Z,3.90
2019-05-26T10:23:25.278Z,5.07
2019-05-26T10:25:54.332Z,4.97
2019-05-26T10:28:23.421Z,2.97
2019-05-26T10:30:52.810Z,5.73
2019-05-26T10:33:21.870Z,2.50
2019-05-26T10:35:51.558Z,3.27
2019-05-26T10:38:20.926Z,3.63
2019-05-26T10:40:50.299Z,5.00
2019-05-26T10:43:19.587Z,3.13
2019-05-26T10:45:49.237Z,3.00
2019-05-26T10:48:18.884Z,4.00
2019-05-26T10:50:48.252Z,3.33
2019-05-26T10:53:17.550Z,4.13
2019-05-26T10:55:46.918Z,5.77
2019-05-26T10:58:16.248Z,6.13
2019-05-26T11:00:45.180Z,3.77
2019-05-26T11:03:14.115Z,6.00
2019-05-26T11:05:43.227Z,2.60
2019-05-26T11:08:12.764Z,2.23
2019-05-26T11:10:42.073Z,4.53
2019-05-26T11:13:11.031Z,3.10
2019-05-26T11:15:40.071Z,2.63
2019-05-26T11:18:10.067Z,3.60
2019-05-26T11:20:39.409Z,8.30
2019-05-26T11:23:08.370Z,3.50
2019-05-26T11:25:37.317Z,4.30
2019-05-26T11:28:06.692Z,2.90
2019-05-26T11:30:36.059Z,3.30
2019-05-26T11:33:05.356Z,4.60
2019-05-26T11:35:34.665Z,4.07
2019-05-26T11:38:03.791Z,8.33
2019-05-26T11:40:33.076Z,3.73
2019-05-26T11:43:15.793Z,3.70
2019-05-26T11:45:33.947Z,4.87
2019-05-26T11:48:03.439Z,3.00
2019-05-26T11:50:33.262Z,6.20
2019-05-26T11:53:02.712Z,4.90
2019-05-26T11:55:32.039Z,3.37
2019-05-26T11:58:01.686Z,5.37
2019-05-26T12:00:31.313Z,3.13
2019-05-26T12:03:00.752Z,4.17
2019-05-26T12:05:30.070Z,4.10
2019-05-26T12:07:59.139Z,4.57
2019-05-26T12:10:28.691Z,4.63
2019-05-26T12:12:58.339Z,2.70
2019-05-26T12:15:27.927Z,2.70
2019-05-26T12:17:57.185Z,3.17
2019-05-26T12:20:26.554Z,6.00
2019-05-26T12:22:55.816Z,2.27
2019-05-26T12:25:25.111Z,3.00
2019-05-26T12:27:54.062Z,3.57
2019-05-26T12:30:23.344Z,3.57
2019-05-26T12:32:53.004Z,2.17
2019-05-26T12:35:24.381Z,2.27
2019-05-26T12:37:53.601Z,3.40
2019-05-26T12:40:23.200Z,3.50
2019-05-26T12:42:52.812Z,2.53
2019-05-26T12:45:22.225Z,2.10
2019-05-26T12:47:51.563Z,3.50
2019-05-26T12:50:20.600Z,2.53
2019-05-26T12:52:49.890Z,3.37
2019-05-26T12:55:19.414Z,3.63
2019-05-26T12:57:48.558Z,3.37
2019-05-26T13:00:17.619Z,3.03
2019-05-26T13:02:47.367Z,4.50
2019-05-26T13:05:16.625Z,2.53
2019-05-26T13:07:45.654Z,2.50
2019-05-26T13:10:15.700Z,3.23
2019-05-26T13:12:45.686Z,3.13
2019-05-26T13:15:15.157Z,3.13
2019-05-26T13:17:44.575Z,3.53
2019-05-26T13:20:14.726Z,3.23
2019-05-26T13:22:44.050Z,4.67
2019-05-26T13:25:13.675Z,4.20
2019-05-26T13:27:43.385Z,3.50
2019-05-26T13:30:13.474Z,2.37
2019-05-26T13:32:43.135Z,2.77
2019-05-26T13:35:12.392Z,2.30
2019-05-26T13:37:41.414Z,2.37
2019-05-26T13:40:10.759Z,4.83
2019-05-26T13:42:40.008Z,2.10
2019-05-26T13:45:21.684Z,2.90
2019-05-26T13:47:41.441Z,6.70
2019-05-26T13:50:10.746Z,3.50
2019-05-26T13:52:40.082Z,2.80
2019-05-26T13:55:09.298Z,4.40
2019-05-26T13:57:38.642Z,3.70
2019-05-26T14:00:08.594Z,3.27
2019-05-26T14:02:38.065Z,7.10
2019-05-26T14:05:07.472Z,6.07
2019-05-26T14:07:36.912Z,4.90
2019-05-26T14:10:06.218Z,3.87
2019-05-26T14:12:35.219Z,10.10
2019-05-26T14:15:04.348Z,2.13
2019-05-26T14:17:34.186Z,5.13
2019-05-26T14:20:04.659Z,2.77
2019-05-26T14:22:33.620Z,3.90
2019-05-26T14:25:03.073Z,4.70
2019-05-26T14:27:32.033Z,5.10
2019-05-26T14:30:01.374Z,3.70
2019-05-26T14:32:30.315Z,8.70
2019-05-26T14:34:59.353Z,3.47
2019-05-26T14:37:28.366Z,3.47
2019-05-26T14:39:57.701Z,2.90
2019-05-26T14:42:27.240Z,4.73
2019-05-26T14:44:56.736Z,3.80
2019-05-26T14:47:25.937Z,2.30
2019-05-26T14:49:55.269Z,7.47
2019-05-26T14:52:24.194Z,5.20
2019-05-26T14:54:53.173Z,2.60
2019-05-26T14:57:24.290Z,3.50
2019-05-26T14:59:53.563Z,2.10
2019-05-26T15:02:22.485Z,4.43
2019-05-26T15:04:51.981Z,3.10
2019-05-26T15:07:20.932Z,3.13
2019-05-26T15:09:49.895Z,3.00
2019-05-26T15:12:18.870Z,4.40
2019-05-26T15:14:47.847Z,2.17
2019-05-26T15:17:17.142Z,3.00
2019-05-26T15:19:46.465Z,3.33
2019-05-26T15:22:15.482Z,5.60
2019-05-26T15:24:44.966Z,3.40
2019-05-26T15:27:14.243Z,2.60
2019-05-26T15:29:43.180Z,3.57
2019-05-26T15:32:12.114Z,2.90
2019-05-26T15:34:41.633Z,2.17
2019-05-26T15:37:10.646Z,3.40
2019-05-26T15:39:39.607Z,1.73
2019-05-26T15:42:09.040Z,2.50
2019-05-26T15:44:39.176Z,2.53
2019-05-26T15:47:08.504Z,3.87
2019-05-26T15:49:38.325Z,2.90
2019-05-26T15:52:08.370Z,2.50
2019-05-26T15:54:37.569Z,1.80
2019-05-26T15:57:06.501Z,1.97
2019-05-26T15:59:36.679Z,2.53
2019-05-26T16:02:06.082Z,4.07
2019-05-26T16:04:35.522Z,2.40
2019-05-26T16:07:04.863Z,4.50
2019-05-26T16:09:33.843Z,1.50
2019-05-26T16:12:03.096Z,3.40
2019-05-26T16:14:32.462Z,2.60
2019-05-26T16:17:01.664Z,2.83
2019-05-26T16:19:30.985Z,1.67
2019-05-26T16:22:00.315Z,2.63
2019-05-26T16:24:29.341Z,3.40
2019-05-26T16:27:00.543Z,3.70
2019-05-26T16:29:29.939Z,4.00
2019-05-26T16:31:59.045Z,1.93
2019-05-26T16:34:32.250Z,2.20
2019-05-26T16:37:15.895Z,2.73
2019-05-26T16:39:51.063Z,2.03
2019-05-26T16:42:25.716Z,2.80
2019-05-26T16:45:00.354Z,3.17
2019-05-26T16:47:36.377Z,2.27
2019-05-26T16:50:26.557Z,3.63
2019-05-26T16:53:05.647Z,3.30
2019-05-26T16:55:42.641Z,2.67
2019-05-26T16:58:12.571Z,2.90
2019-05-26T17:00:42.169Z,4.73
2019-05-26T17:03:11.935Z,2.83
2019-05-26T17:05:40.906Z,9.43
2019-05-26T17:08:09.873Z,3.93
2019-05-26T17:10:39.244Z,2.30
2019-05-26T17:13:08.349Z,3.67
2019-05-26T17:15:37.817Z,3.67
2019-05-26T17:18:07.042Z,3.80
2019-05-26T17:20:36.413Z,3.83
2019-05-26T17:23:05.465Z,4.57
2019-05-26T17:25:34.662Z,7.03
2019-05-26T17:28:03.939Z,5.77
2019-05-26T17:30:33.555Z,2.33
2019-05-26T17:33:02.878Z,8.20
2019-05-26T17:35:32.153Z,5.77
2019-05-26T17:38:01.531Z,3.77
2019-05-26T17:40:30.947Z,6.47
2019-05-26T17:42:59.933Z,3.20
2019-05-26T17:45:29.518Z,3.73
2019-05-26T17:47:59.213Z,4.93
2019-05-26T17:50:28.178Z,4.67
2019-05-26T17:52:57.130Z,5.50
2019-05-26T17:55:26.114Z,4.97
2019-05-26T17:57:55.097Z,4.17
2019-05-26T18:00:24.283Z,3.43
2019-05-26T18:02:53.898Z,9.63
2019-05-26T18:05:23.129Z,4.10
2019-05-26T18:07:52.157Z,6.80
2019-05-26T18:10:21.502Z,5.60
2019-05-26T18:12:50.465Z,5.37
2019-05-26T18:15:19.750Z,6.33
2019-05-26T18:17:49.097Z,5.53
2019-05-26T18:20:18.659Z,6.47
2019-05-26T18:22:48.167Z,3.30
2019-05-26T18:25:17.573Z,4.30
2019-05-26T18:27:47.625Z,3.60
2019-05-26T18:30:17.058Z,4.47
2019-05-26T18:32:46.869Z,7.73
2019-05-26T18:35:15.973Z,4.37
2019-05-26T18:37:44.959Z,5.27
2019-05-26T18:40:14.532Z,6.63
2019-05-26T18:42:43.949Z,3.33
2019-05-26T18:45:13.678Z,4.60
2019-05-26T18:47:43.373Z,6.03
2019-05-26T18:50:13.257Z,3.50
2019-05-26T18:52:42.662Z,3.93
2019-05-26T18:55:12.315Z,4.23
2019-05-26T18:57:41.718Z,3.50
2019-05-26T19:00:12.370Z,3.83
2019-05-26T19:02:42.162Z,4.40
2019-05-26T19:05:11.485Z,3.23
2019-05-26T19:07:41.148Z,4.07
2019-05-26T19:10:10.647Z,4.33
2019-05-26T19:12:40.228Z,3.30
2019-05-26T19:15:09.803Z,3.33
2019-05-26T19:17:39.283Z,6.03
2019-05-26T19:20:16.060Z,5.53
2019-05-26T19:22:39.471Z,5.87
2019-05-26T19:25:09.296Z,5.23
2019-05-26T19:27:38.603Z,8.17
2019-05-26T19:30:08.159Z,4.13
2019-05-26T19:32:37.230Z,4.40
2019-05-26T19:35:06.974Z,5.30
2019-05-26T19:37:35.982Z,5.50
2019-05-26T19:40:05.094Z,6.97
2019-05-26T19:42:34.295Z,4.57
2019-05-26T19:45:03.615Z,4.77
2019-05-26T19:47:33.119Z,3.80
2019-05-26T19:50:02.350Z,4.97
2019-05-26T19:52:31.731Z,5.63
2019-05-26T19:55:00.698Z,3.50
2019-05-26T19:57:29.661Z,9.27
2019-05-26T19:59:58.669Z,5.27
2019-05-26T20:02:28.154Z,4.90
2019-05-26T20:04:57.074Z,6.20
2019-05-26T20:07:27.472Z,4.33
2019-05-26T20:09:56.762Z,5.60
2019-05-26T20:12:26.126Z,4.70
2019-05-26T20:14:55.425Z,6.33
2019-05-26T20:17:24.366Z,5.63
2019-05-26T20:19:53.353Z,5.27
2019-05-26T20:22:24.511Z,4.67
2019-05-26T20:24:52.878Z,7.60
2019-05-26T20:27:22.123Z,6.93
2019-05-26T20:29:51.402Z,5.00
2019-05-26T20:32:20.363Z,5.80
2019-05-26T20:34:49.842Z,10.40
2019-05-26T20:37:18.757Z,6.90
2019-05-26T20:39:48.284Z,6.37
2019-05-26T20:42:17.863Z,9.07
2019-05-26T20:47:47.494Z,5.20
2019-05-26T20:50:28.744Z,7.70
2019-05-26T20:52:51.556Z,4.90
2019-05-26T20:55:22.081Z,6.73
2019-05-26T20:57:51.495Z,14.37
2019-05-26T21:00:20.856Z,9.77
2019-05-26T21:02:50.206Z,8.53
2019-05-26T21:05:20.534Z,10.13
2019-05-26T21:07:49.958Z,6.03
2019-05-26T21:10:20.240Z,5.40
2019-05-26T21:12:49.771Z,8.20
2019-05-26T21:15:19.791Z,12.37
2019-05-26T21:17:49.229Z,6.57
2019-05-26T21:20:18.222Z,6.27
2019-05-26T21:22:47.578Z,9.63
2019-05-26T21:25:16.595Z,7.50
2019-05-26T21:27:46.308Z,7.93
2019-05-26T21:30:15.834Z,8.07
2019-05-26T21:32:45.159Z,5.67
2019-05-26T21:35:15.059Z,9.90
2019-05-26T21:37:44.407Z,8.33
2019-05-26T21:40:14.186Z,8.80
2019-05-26T21:42:43.503Z,9.00
2019-05-26T21:45:12.885Z,6.97
2019-05-26T21:47:42.272Z,6.67
2019-05-26T21:50:11.329Z,8.40
2019-05-26T21:52:40.670Z,6.40
2019-05-26T21:55:10.118Z,13.70
2019-05-26T21:57:39.082Z,9.23
2019-05-26T22:00:09.506Z,6.77
2019-05-26T22:02:40.855Z,7.63
2019-05-26T22:05:10.598Z,6.60
2019-05-26T22:07:39.938Z,6.60
2019-05-26T22:10:09.737Z,5.77
2019-05-26T22:12:39.026Z,4.57
2019-05-26T22:15:08.291Z,6.60
2019-05-26T22:17:37.268Z,8.13
2019-05-26T22:20:06.733Z,8.13
2019-05-26T22:22:35.730Z,8.10
2019-05-26T22:25:06.806Z,6.40
2019-05-26T22:27:36.135Z,12.90
2019-05-26T22:30:05.492Z,9.77
2019-05-26T22:32:34.509Z,7.63
2019-05-26T22:35:03.651Z,6.83
2019-05-26T22:37:32.692Z,7.63
2019-05-26T22:40:02.401Z,7.57
2019-05-26T22:42:31.766Z,6.93
2019-05-26T22:45:00.815Z,8.13
2019-05-26T22:47:29.742Z,12.87
2019-05-26T22:50:00.091Z,8.87
2019-05-26T22:52:29.786Z,7.00
2019-05-26T22:54:58.757Z,8.67
2019-05-26T22:57:27.757Z,6.80
2019-05-26T22:59:56.681Z,6.20
2019-05-26T23:02:26.020Z,8.10
2019-05-26T23:04:55.024Z,6.03
2019-05-26T23:07:24.360Z,7.77
2019-05-26T23:09:53.313Z,5.30
2019-05-26T23:12:22.594Z,5.30
2019-05-26T23:14:51.627Z,5.87
2019-05-26T23:17:21.251Z,7.03
2019-05-26T23:19:50.261Z,11.23
2019-05-26T23:22:19.217Z,6.03
2019-05-26T23:24:48.585Z,8.80
2019-05-26T23:27:17.852Z,6.77
2019-05-26T23:29:46.834Z,8.20
2019-05-26T23:32:15.775Z,7.80
2019-05-26T23:34:45.411Z,9.50
2019-05-26T23:37:14.483Z,8.10
2019-05-26T23:39:43.421Z,6.90
2019-05-26T23:42:12.410Z,15.83
2019-05-26T23:44:41.383Z,6.07
2019-05-26T23:47:10.454Z,8.50
2019-05-26T23:49:39.770Z,13.93
2019-05-26T23:52:09.053Z,6.87
2019-05-26T23:54:38.702Z,9.80
2019-05-26T23:57:07.654Z,6.20
2019-05-26T23:59:36.954Z,6.57
